Time;durP1;ratioP1;P1;durP2;ratioP2;P2;SDS_P1;SDS_P2;PMS_P1;PMS_P2;Temp;Humidity;BMP_temperature;BMP_pressure;BME280_temperature;BME280_humidity;BME280_pressure;Samples;Min_cycle;Max_cycle;Signal;HPM_P1;HPM_P2
2022/05/05 00:00:32;;;;;;;3.70;3.40;;;16.20;99.90;;;;;;5057390;28;20583;-77
2022/05/05 00:03:00;;;;;;;5.13;4.30;;;16.30;99.90;;;;;;5056948;28;20548;-78
2022/05/05 00:05:28;;;;;;;6.40;4.40;;;16.40;99.90;;;;;;5059691;28;20505;-81
2022/05/05 00:07:56;;;;;;;4.47;4.07;;;16.40;99.90;;;;;;5052010;28;20466;-78
2022/05/05 00:15:57;;;;;;;3.93;3.53;;;16.50;99.90;;;;;;5087993;28;20456;-79
2022/05/05 00:18:25;;;;;;;4.30;3.90;;;16.40;99.90;;;;;;5058828;28;20461;-78
2022/05/05 00:20:53;;;;;;;4.40;3.60;;;16.50;99.90;;;;;;5060182;28;20453;-79
2022/05/05 00:23:21;;;;;;;3.80;3.13;;;16.40;99.90;;;;;;5061006;28;20472;-79
2022/05/05 00:25:51;;;;;;;4.10;3.80;;;16.40;99.90;;;;;;5056573;28;21022;-80
2022/05/05 00:28:19;;;;;;;5.00;4.63;;;16.40;99.90;;;;;;5062805;28;20455;-78
2022/05/05 00:30:47;;;;;;;4.20;3.80;;;16.30;99.90;;;;;;5061613;28;20436;-77
2022/05/05 00:33:15;;;;;;;4.17;3.77;;;16.30;99.90;;;;;;5061650;28;21226;-78
2022/05/05 00:35:43;;;;;;;4.03;3.73;;;16.40;99.90;;;;;;5060686;28;20455;-79
2022/05/05 00:38:11;;;;;;;4.67;4.27;;;16.30;99.90;;;;;;5057642;28;22727;-79
2022/05/05 00:40:43;;;;;;;2.93;2.73;;;16.30;99.90;;;;;;5063310;28;20512;-79
2022/05/05 00:43:12;;;;;;;4.13;3.70;;;16.20;99.90;;;;;;5061344;28;20468;-79
2022/05/05 00:45:41;;;;;;;4.17;3.87;;;16.20;99.90;;;;;;5060165;28;20486;-79
2022/05/05 00:48:12;;;;;;;4.13;3.73;;;16.20;99.90;;;;;;5058367;28;20974;-79
2022/05/05 00:50:40;;;;;;;3.93;3.60;;;16.20;99.90;;;;;;5058546;28;20447;-79
2022/05/05 00:53:09;;;;;;;6.40;4.13;;;16.20;99.90;;;;;;5057189;28;20480;-80
2022/05/05 00:55:39;;;;;;;3.43;3.23;;;16.20;99.90;;;;;;5064843;28;20446;-80
2022/05/05 00:58:07;;;;;;;3.80;3.40;;;16.20;99.90;;;;;;5061505;28;20441;-80
2022/05/05 01:00:37;;;;;;;5.83;3.43;;;16.20;99.90;;;;;;5057598;28;20486;-80
2022/05/05 01:03:08;;;;;;;4.17;3.67;;;16.40;99.90;;;;;;5058341;28;20494;-78
2022/05/05 01:05:39;;;;;;;3.60;3.10;;;16.10;99.90;;;;;;5057976;28;21006;-78
2022/05/05 01:08:08;;;;;;;4.30;3.77;;;16.00;99.90;;;;;;5057520;28;20465;-79
2022/05/05 01:10:37;;;;;;;3.37;3.10;;;16.00;99.90;;;;;;5056780;28;20445;-80
2022/05/05 01:13:05;;;;;;;4.97;4.57;;;16.00;99.90;;;;;;5053922;28;21007;-79
2022/05/05 01:15:37;;;;;;;3.87;3.57;;;16.00;99.90;;;;;;5060202;28;20450;-78
2022/05/05 01:18:05;;;;;;;4.63;4.00;;;16.00;99.90;;;;;;5058772;28;20501;-80
2022/05/05 01:20:44;;;;;;;3.53;3.23;;;16.00;99.90;;;;;;5060386;28;20637;-79
2022/05/05 01:23:14;;;;;;;6.60;6.00;;;15.90;99.90;;;;;;5061858;28;20877;-80
2022/05/05 01:28:32;;;;;;;8.17;3.30;;;15.90;99.90;;;;;;5060235;28;20991;-80
2022/05/05 01:31:00;;;;;;;4.57;4.17;;;15.90;99.90;;;;;;5061184;28;20445;-80
2022/05/05 01:33:30;;;;;;;5.00;4.60;;;15.80;99.90;;;;;;5062076;28;20453;-80
2022/05/05 01:35:59;;;;;;;4.47;4.07;;;15.90;99.90;;;;;;5058566;28;20585;-80
2022/05/05 01:38:36;;;;;;;4.60;4.20;;;15.80;99.90;;;;;;5057853;28;20465;-79
2022/05/05 01:41:06;;;;;;;4.03;3.73;;;15.80;99.90;;;;;;5056504;28;21265;-79
2022/05/05 01:43:34;;;;;;;4.33;3.83;;;15.90;99.90;;;;;;5059009;28;20465;-78
2022/05/05 01:46:03;;;;;;;4.47;4.00;;;15.90;99.90;;;;;;5057939;28;20817;-79
2022/05/05 01:48:32;;;;;;;4.07;3.70;;;15.90;99.90;;;;;;5057728;28;20450;-79
2022/05/05 01:51:01;;;;;;;4.33;3.93;;;15.90;99.90;;;;;;5058119;28;20884;-79
2022/05/05 01:53:36;;;;;;;3.90;3.60;;;15.80;99.90;;;;;;5053725;28;21458;-79
2022/05/05 01:56:06;;;;;;;5.33;3.80;;;15.70;99.90;;;;;;5057187;28;20852;-79
2022/05/05 01:58:34;;;;;;;3.67;3.37;;;15.60;99.90;;;;;;5058064;28;20454;-79
2022/05/05 02:01:02;;;;;;;4.20;3.80;;;15.60;99.90;;;;;;5057623;28;20471;-80
2022/05/05 02:03:31;;;;;;;4.00;3.60;;;15.60;99.90;;;;;;5058798;28;20459;-79
2022/05/05 02:05:59;;;;;;;4.60;4.20;;;15.60;99.90;;;;;;5056887;28;20521;-78
2022/05/05 02:08:27;;;;;;;4.40;3.60;;;15.60;99.90;;;;;;5056136;28;20522;-78
2022/05/05 02:10:56;;;;;;;4.63;4.10;;;15.50;99.90;;;;;;5053529;28;20945;-77
2022/05/05 02:13:25;;;;;;;4.87;3.87;;;15.50;99.90;;;;;;5054750;28;20528;-79
2022/05/05 02:15:53;;;;;;;4.47;4.17;;;15.30;99.90;;;;;;5054704;28;20465;-81
2022/05/05 02:18:21;;;;;;;3.77;3.47;;;15.40;99.90;;;;;;5057523;28;21064;-79
2022/05/05 02:20:49;;;;;;;4.17;3.77;;;15.40;99.90;;;;;;5059665;28;20474;-79
2022/05/05 02:23:17;;;;;;;5.20;4.73;;;15.40;99.90;;;;;;5060300;28;20462;-80
2022/05/05 02:25:45;;;;;;;4.13;3.73;;;15.50;99.90;;;;;;5062085;28;20456;-79
2022/05/05 02:28:15;;;;;;;4.60;4.17;;;15.50;99.90;;;;;;5057401;28;20460;-80
2022/05/05 02:30:43;;;;;;;5.77;3.90;;;15.50;99.90;;;;;;5062116;28;20446;-80
2022/05/05 02:33:11;;;;;;;6.90;4.20;;;15.50;99.90;;;;;;5060301;28;20463;-79
2022/05/05 02:35:39;;;;;;;5.00;4.53;;;15.40;99.90;;;;;;5064754;28;20458;-79
2022/05/05 02:40:54;;;;;;;5.83;4.53;;;15.30;99.90;;;;;;5058861;28;20571;-79
2022/05/05 02:43:23;;;;;;;4.50;4.10;;;15.40;99.90;;;;;;5061322;28;20469;-79
2022/05/05 02:45:51;;;;;;;3.77;3.47;;;15.30;99.90;;;;;;5063373;28;20455;-79
2022/05/05 02:48:19;;;;;;;4.50;4.10;;;15.20;99.90;;;;;;5060884;28;20460;-80
2022/05/05 02:50:47;;;;;;;5.07;4.67;;;15.10;99.90;;;;;;5062435;28;20441;-79
2022/05/05 02:56:01;;;;;;;4.47;3.93;;;15.20;99.90;;;;;;5060464;28;20462;-79
2022/05/05 02:58:31;;;;;;;4.53;4.23;;;15.30;99.90;;;;;;5059585;28;20466;-78
2022/05/05 03:00:59;;;;;;;4.60;4.13;;;15.30;99.90;;;;;;5059218;28;20474;-79
2022/05/05 03:03:27;;;;;;;4.70;4.30;;;15.30;99.90;;;;;;5057041;28;20453;-80
2022/05/05 03:05:55;;;;;;;4.43;3.87;;;15.20;99.90;;;;;;5062969;28;20449;-80
2022/05/05 03:08:24;;;;;;;4.27;3.97;;;15.00;99.90;;;;;;5057191;28;20448;-78
2022/05/05 03:10:52;;;;;;;4.33;3.80;;;15.00;99.90;;;;;;5061974;28;20443;-79
2022/05/05 03:13:20;;;;;;;3.83;3.50;;;15.10;99.90;;;;;;5089040;28;21761;-79
2022/05/05 03:15:49;;;;;;;4.33;3.90;;;15.10;99.90;;;;;;5057615;28;20877;-80
2022/05/05 03:18:18;;;;;;;3.67;3.37;;;15.20;99.90;;;;;;5053511;28;20455;-79
2022/05/05 03:20:46;;;;;;;3.90;3.60;;;15.30;99.90;;;;;;5061416;28;20482;-79
2022/05/05 03:23:14;;;;;;;5.30;4.80;;;15.30;99.90;;;;;;5057172;28;20484;-79
2022/05/05 03:25:42;;;;;;;6.03;4.27;;;15.40;99.90;;;;;;5062450;28;20920;-80
2022/05/05 03:28:10;;;;;;;5.23;4.73;;;15.40;99.90;;;;;;5057745;28;20559;-78
2022/05/05 03:30:39;;;;;;;4.97;4.57;;;15.40;99.90;;;;;;5061619;28;20444;-79
2022/05/05 03:33:09;;;;;;;5.00;4.50;;;15.40;99.90;;;;;;5059417;28;20473;-81
2022/05/05 03:35:37;;;;;;;4.80;4.30;;;15.40;99.90;;;;;;5060273;28;20455;-80
2022/05/05 03:38:05;;;;;;;4.37;3.83;;;15.40;99.90;;;;;;5052755;28;20462;-79
2022/05/05 03:40:33;;;;;;;4.73;4.33;;;15.40;99.90;;;;;;5057840;28;20490;-80
2022/05/05 03:43:01;;;;;;;3.83;3.53;;;15.30;99.90;;;;;;5057628;28;20503;-79
2022/05/05 03:45:30;;;;;;;4.47;4.10;;;15.30;99.90;;;;;;5059486;28;20869;-79
2022/05/05 03:47:58;;;;;;;4.30;4.00;;;15.30;99.90;;;;;;5059505;28;21039;-79
2022/05/05 03:50:28;;;;;;;4.87;4.50;;;15.40;99.90;;;;;;5061561;28;20458;-80
2022/05/05 03:52:56;;;;;;;4.93;4.53;;;15.40;99.90;;;;;;5063029;28;20477;-79
2022/05/05 03:55:24;;;;;;;4.20;3.80;;;15.40;99.90;;;;;;5057696;28;20470;-79
2022/05/05 03:57:53;;;;;;;4.17;3.80;;;15.40;99.90;;;;;;5057672;28;20462;-80
2022/05/05 04:00:23;;;;;;;4.57;4.23;;;15.30;99.90;;;;;;5058373;28;21087;-80
2022/05/05 04:05:35;;;;;;;4.17;3.80;;;15.40;99.90;;;;;;5056628;28;20453;-80
2022/05/05 04:08:04;;;;;;;6.00;4.40;;;15.40;99.90;;;;;;5055392;28;20453;-76
2022/05/05 04:10:33;;;;;;;4.30;3.90;;;15.40;99.90;;;;;;5059636;28;20474;-78
2022/05/05 04:13:01;;;;;;;4.97;4.43;;;15.40;99.90;;;;;;5057423;28;20462;-76
2022/05/05 04:15:30;;;;;;;4.03;3.53;;;15.50;99.90;;;;;;5053785;28;20548;-80
2022/05/05 04:17:58;;;;;;;5.27;4.30;;;15.50;99.90;;;;;;5052537;28;20451;-79
2022/05/05 04:20:26;;;;;;;4.40;4.10;;;15.40;99.90;;;;;;5055367;28;20445;-79
2022/05/05 04:22:57;;;;;;;4.90;4.23;;;15.40;99.90;;;;;;5054497;28;20476;-81
2022/05/05 04:25:25;;;;;;;4.00;3.70;;;15.30;99.90;;;;;;5059842;28;21020;-80
2022/05/05 04:27:53;;;;;;;5.50;5.10;;;15.30;99.90;;;;;;5060034;28;20548;-81
2022/05/05 04:30:21;;;;;;;7.50;5.00;;;15.30;99.90;;;;;;5053593;28;20478;-80
2022/05/05 04:32:50;;;;;;;5.20;3.90;;;15.30;99.90;;;;;;5058681;28;20990;-80
2022/05/05 04:35:18;;;;;;;5.87;5.37;;;15.30;99.90;;;;;;5059502;28;20457;-81
2022/05/05 04:37:47;;;;;;;5.47;4.30;;;15.30;99.90;;;;;;5060671;28;20475;-79
2022/05/05 04:40:16;;;;;;;4.63;4.23;;;15.40;99.90;;;;;;5053463;28;20459;-79
2022/05/05 04:42:45;;;;;;;4.33;3.93;;;15.40;99.90;;;;;;5058948;28;20472;-79
2022/05/05 04:45:13;;;;;;;4.20;3.90;;;15.40;99.90;;;;;;5054446;28;20533;-80
2022/05/05 04:47:43;;;;;;;4.17;3.77;;;15.40;99.90;;;;;;5051375;28;20451;-80
2022/05/05 04:50:12;;;;;;;4.53;4.23;;;15.30;99.90;;;;;;5055649;28;20457;-80
2022/05/05 04:52:40;;;;;;;4.00;3.67;;;15.30;99.90;;;;;;5054189;28;20480;-79
2022/05/05 04:55:09;;;;;;;5.07;4.57;;;15.30;99.90;;;;;;5054509;28;20526;-79
2022/05/05 04:57:38;;;;;;;5.47;4.80;;;15.40;99.90;;;;;;5059371;28;21116;-80
2022/05/05 05:00:09;;;;;;;4.37;4.03;;;15.50;99.90;;;;;;5057351;28;20611;-80
2022/05/05 05:02:37;;;;;;;5.30;4.30;;;15.50;99.90;;;;;;5051933;28;22524;-80
2022/05/05 05:05:06;;;;;;;4.30;3.97;;;15.30;99.90;;;;;;5054451;28;20470;-79
2022/05/05 05:07:34;;;;;;;4.50;4.20;;;15.10;99.90;;;;;;5058027;28;21362;-80
2022/05/05 05:10:03;;;;;;;5.07;4.60;;;15.10;99.90;;;;;;5060087;28;20864;-79
2022/05/05 05:12:31;;;;;;;6.80;6.13;;;15.10;99.90;;;;;;5057766;28;20469;-81
2022/05/05 05:15:01;;;;;;;5.83;4.97;;;15.10;99.90;;;;;;5054715;28;20561;-80
2022/05/05 05:17:29;;;;;;;4.80;4.40;;;15.10;99.90;;;;;;5053630;28;20450;-79
2022/05/05 05:19:57;;;;;;;5.00;4.50;;;15.10;99.90;;;;;;5050653;28;20447;-80
2022/05/05 05:22:25;;;;;;;6.00;5.40;;;15.10;99.90;;;;;;5054529;28;20624;-78
2022/05/05 05:24:53;;;;;;;5.47;4.93;;;15.20;99.90;;;;;;5050756;28;20456;-79
2022/05/05 05:27:22;;;;;;;5.60;4.80;;;15.30;99.90;;;;;;5053060;28;20470;-80
2022/05/05 05:29:51;;;;;;;6.47;5.17;;;15.40;99.90;;;;;;5049587;28;20461;-80
2022/05/05 05:32:20;;;;;;;4.43;4.03;;;15.40;99.90;;;;;;5056031;28;21028;-81
2022/05/05 05:34:48;;;;;;;6.23;5.30;;;15.50;1.00;;;;;;5052530;28;20448;-80
2022/05/05 05:37:17;;;;;;;5.00;4.60;;;15.50;1.00;;;;;;5053989;28;20453;-80
2022/05/05 05:39:45;;;;;;;4.77;4.37;;;15.50;99.90;;;;;;5052472;28;20465;-80
2022/05/05 05:42:13;;;;;;;6.57;4.50;;;15.40;99.90;;;;;;5051892;28;20485;-80
2022/05/05 05:44:41;;;;;;;6.30;5.00;;;15.30;99.90;;;;;;5052011;28;20505;-79
2022/05/05 05:47:10;;;;;;;5.17;4.67;;;15.30;99.90;;;;;;5050284;28;20470;-79
2022/05/05 05:49:40;;;;;;;4.77;4.30;;;15.30;1.00;;;;;;5053219;28;20484;-79
2022/05/05 05:52:08;;;;;;;4.93;4.50;;;15.30;1.00;;;;;;5060292;28;20535;-81
2022/05/05 05:54:36;;;;;;;5.17;4.67;;;15.40;99.90;;;;;;5057794;28;20461;-80
2022/05/05 05:57:05;;;;;;;5.30;4.60;;;15.50;99.90;;;;;;5061854;28;20460;-80
2022/05/05 05:59:34;;;;;;;5.50;4.83;;;15.60;99.90;;;;;;5063320;28;20525;-80
2022/05/05 06:04:49;;;;;;;6.67;5.13;;;15.60;99.90;;;;;;5065253;28;20448;-79
2022/05/05 06:07:18;;;;;;;4.80;4.40;;;15.60;99.90;;;;;;5061047;28;20508;-79
2022/05/05 06:09:46;;;;;;;7.40;4.90;;;15.70;99.90;;;;;;5059788;28;20450;-80
2022/05/05 06:12:14;;;;;;;6.33;5.83;;;15.80;99.90;;;;;;5057990;28;21308;-81
2022/05/05 06:14:43;;;;;;;5.37;4.17;;;15.80;99.90;;;;;;5061974;28;20502;-79
2022/05/05 06:17:11;;;;;;;4.17;3.77;;;15.80;99.90;;;;;;5060618;28;20473;-77
2022/05/05 06:19:39;;;;;;;4.23;3.90;;;15.90;99.90;;;;;;5057966;28;20457;-79
2022/05/05 06:22:08;;;;;;;6.37;5.83;;;15.90;99.90;;;;;;5062061;28;20573;-79
2022/05/05 06:24:37;;;;;;;5.80;4.57;;;15.90;99.90;;;;;;5060786;28;20446;-80
2022/05/05 06:27:06;;;;;;;5.10;4.70;;;16.00;99.90;;;;;;5059694;28;20469;-79
2022/05/05 06:29:34;;;;;;;4.23;3.73;;;16.10;99.90;;;;;;5063530;28;20458;-79
2022/05/05 06:32:02;;;;;;;4.57;4.10;;;16.00;99.90;;;;;;5063271;28;20473;-79
2022/05/05 06:34:31;;;;;;;7.13;4.80;;;16.00;99.90;;;;;;5064018;28;20464;-81
2022/05/05 06:36:59;;;;;;;4.40;4.00;;;15.90;99.90;;;;;;5065341;28;20465;-80
2022/05/05 06:39:30;;;;;;;4.10;3.70;;;16.00;99.90;;;;;;5063276;28;20477;-79
2022/05/05 06:41:58;;;;;;;4.37;3.50;;;16.00;99.90;;;;;;5060252;28;21058;-79
2022/05/05 06:44:26;;;;;;;5.97;4.60;;;16.00;99.90;;;;;;5060939;28;20455;-79
2022/05/05 06:46:58;;;;;;;4.03;3.73;;;16.10;99.90;;;;;;5054244;28;20465;-80
2022/05/05 06:49:26;;;;;;;4.50;3.23;;;16.10;99.90;;;;;;5063449;28;20567;-79
2022/05/05 06:51:54;;;;;;;4.40;3.83;;;16.10;99.90;;;;;;5063882;28;20546;-79
2022/05/05 06:54:30;;;;;;;5.10;4.60;;;16.10;99.90;;;;;;5062414;28;21322;-79
2022/05/05 06:56:58;;;;;;;4.60;4.20;;;16.20;99.90;;;;;;5062004;28;20449;-79
2022/05/05 06:59:26;;;;;;;4.40;3.70;;;16.20;99.90;;;;;;5059771;28;20459;-79
2022/05/05 07:01:54;;;;;;;3.40;3.10;;;16.20;99.90;;;;;;5054109;28;20477;-79
2022/05/05 07:07:14;;;;;;;6.17;3.70;;;16.20;99.90;;;;;;5055809;28;21143;-80
2022/05/05 07:12:31;;;;;;;4.07;3.70;;;16.30;99.90;;;;;;5055412;28;20575;-80
2022/05/05 07:14:59;;;;;;;4.00;3.50;;;16.10;99.90;;;;;;5056856;28;20450;-79
2022/05/05 07:17:27;;;;;;;4.33;3.80;;;16.20;99.90;;;;;;5049701;28;20982;-80
2022/05/05 07:19:56;;;;;;;5.83;4.07;;;16.20;99.90;;;;;;5059248;28;20439;-79
2022/05/05 07:22:24;;;;;;;4.20;3.80;;;16.10;99.90;;;;;;5057412;28;20497;-79
2022/05/05 07:24:54;;;;;;;2.90;2.70;;;16.20;99.90;;;;;;5056843;28;20453;-79
2022/05/05 07:27:23;;;;;;;3.87;3.47;;;16.20;99.90;;;;;;5054254;28;20469;-79
2022/05/05 07:29:51;;;;;;;3.97;3.10;;;16.20;99.90;;;;;;5060431;28;20977;-79
2022/05/05 07:32:19;;;;;;;5.93;2.80;;;16.20;99.90;;;;;;5055053;28;20483;-79
2022/05/05 07:34:47;;;;;;;3.60;2.77;;;16.20;99.90;;;;;;5052336;28;21441;-79
2022/05/05 07:37:15;;;;;;;4.83;3.10;;;16.20;99.90;;;;;;5054266;28;20452;-79
2022/05/05 07:39:43;;;;;;;4.10;3.03;;;16.20;99.90;;;;;;5056452;28;21738;-79
2022/05/05 07:42:13;;;;;;;4.27;3.20;;;16.20;99.90;;;;;;5057232;28;21127;-79
2022/05/05 07:44:41;;;;;;;4.40;3.50;;;16.10;99.90;;;;;;5053887;28;20447;-79
2022/05/05 07:47:09;;;;;;;4.10;3.70;;;16.20;99.90;;;;;;5050900;28;21027;-80
2022/05/05 07:49:37;;;;;;;4.20;3.40;;;16.20;99.90;;;;;;5070703;28;20458;-80
2022/05/05 07:52:06;;;;;;;4.37;3.97;;;16.20;99.90;;;;;;5053925;28;20478;-79
2022/05/05 07:54:38;;;;;;;3.57;3.00;;;16.20;99.90;;;;;;5053758;28;20455;-79
2022/05/05 07:57:09;;;;;;;5.53;3.63;;;16.20;99.90;;;;;;5056909;28;20459;-79
2022/05/05 07:59:39;;;;;;;3.50;3.20;;;16.30;99.90;;;;;;5053346;28;20567;-79
2022/05/05 08:02:09;;;;;;;4.00;3.53;;;16.30;99.90;;;;;;5054524;28;20482;-80
2022/05/05 08:04:37;;;;;;;3.97;3.60;;;16.30;99.90;;;;;;5053260;28;20483;-79
2022/05/05 08:07:05;;;;;;;5.30;3.60;;;16.30;99.90;;;;;;5056260;28;20456;-79
2022/05/05 08:09:34;;;;;;;6.23;4.73;;;16.40;99.90;;;;;;5053542;28;21969;-80
2022/05/05 08:12:22;;;;;;;5.53;4.80;;;16.40;99.90;;;;;;5053093;28;20466;-79
2022/05/05 08:14:52;;;;;;;7.90;4.80;;;16.40;99.90;;;;;;5050972;28;20459;-80
2022/05/05 08:17:20;;;;;;;5.90;4.50;;;16.40;99.90;;;;;;5053006;28;20452;-79
2022/05/05 08:19:48;;;;;;;5.80;4.87;;;16.40;99.90;;;;;;5058391;28;20444;-80
2022/05/05 08:22:16;;;;;;;5.80;5.20;;;16.50;99.90;;;;;;5054108;28;20516;-79
2022/05/05 08:30:17;;;;;;;4.63;4.17;;;16.50;99.90;;;;;;5058821;28;21243;-79
2022/05/05 08:32:45;;;;;;;5.97;5.37;;;16.50;99.90;;;;;;5058039;28;20976;-81
2022/05/05 08:35:14;;;;;;;8.83;4.97;;;16.50;99.90;;;;;;5056651;28;20450;-79
2022/05/05 08:37:42;;;;;;;8.17;5.13;;;16.50;99.90;;;;;;5054947;28;20456;-79
2022/05/05 08:40:13;;;;;;;5.80;4.40;;;16.60;99.90;;;;;;5057656;28;20459;-79
2022/05/05 08:42:41;;;;;;;5.17;4.67;;;16.60;99.90;;;;;;5056970;28;20485;-79
2022/05/05 08:45:10;;;;;;;6.30;4.80;;;16.60;99.90;;;;;;5055407;28;20485;-78
2022/05/05 08:47:42;;;;;;;8.70;6.50;;;16.70;99.90;;;;;;5059937;28;20447;-79
2022/05/05 08:50:11;;;;;;;6.50;5.90;;;16.60;99.90;;;;;;5056813;28;20459;-79
2022/05/05 08:52:44;;;;;;;5.53;4.87;;;16.70;99.90;;;;;;5053729;28;20482;-79
2022/05/05 08:55:14;;;;;;;5.10;4.60;;;16.70;99.90;;;;;;5058281;28;20482;-79
2022/05/05 08:57:44;;;;;;;6.03;5.43;;;16.70;99.90;;;;;;5058320;28;21094;-79
2022/05/05 09:00:14;;;;;;;6.57;5.33;;;16.70;99.90;;;;;;5053405;28;20545;-80
2022/05/05 09:02:45;;;;;;;6.83;6.07;;;16.70;99.90;;;;;;5052509;28;21066;-81
2022/05/05 09:05:13;;;;;;;7.23;5.67;;;16.60;99.90;;;;;;5053981;28;20490;-80
2022/05/05 09:07:50;;;;;;;8.07;6.07;;;16.60;99.90;;;;;;5058675;28;20466;-79
2022/05/05 09:10:19;;;;;;;6.70;4.63;;;16.70;99.90;;;;;;5059359;28;20991;-79
2022/05/05 09:12:58;;;;;;;6.33;5.40;;;16.70;99.90;;;;;;5051298;28;21877;-80
2022/05/05 09:15:32;;;;;;;5.17;4.70;;;16.80;99.90;;;;;;5054476;28;20454;-80
2022/05/05 09:18:16;;;;;;;7.47;6.10;;;16.90;99.90;;;;;;5056395;28;20520;-79
2022/05/05 09:20:46;;;;;;;7.83;6.70;;;16.90;99.90;;;;;;5055579;28;20524;-80
2022/05/05 09:23:28;;;;;;;6.20;5.50;;;16.80;99.90;;;;;;5057188;28;20473;-79
2022/05/05 09:25:57;;;;;;;7.07;6.33;;;16.70;99.90;;;;;;5054724;28;20468;-80
2022/05/05 09:28:27;;;;;;;6.57;5.77;;;16.70;99.90;;;;;;5055839;28;20826;-80
2022/05/05 09:30:56;;;;;;;7.40;5.90;;;16.90;99.90;;;;;;5053688;28;20455;-79
2022/05/05 09:33:43;;;;;;;8.80;6.13;;;16.80;99.90;;;;;;5053215;28;20466;-80
2022/05/05 09:36:13;;;;;;;9.60;7.07;;;16.80;99.90;;;;;;5049843;28;20454;-79
2022/05/05 09:38:56;;;;;;;8.10;6.67;;;16.70;99.90;;;;;;5052234;28;20462;-79
2022/05/05 09:41:25;;;;;;;9.17;6.87;;;16.80;99.90;;;;;;5055555;28;20490;-80
2022/05/05 09:43:55;;;;;;;9.20;7.20;;;16.90;99.90;;;;;;5055510;28;20477;-79
2022/05/05 09:46:36;;;;;;;8.93;7.70;;;16.90;99.90;;;;;;5055074;28;20836;-79
2022/05/05 09:49:14;;;;;;;8.97;7.50;;;16.90;99.90;;;;;;5083063;28;20545;-79
2022/05/05 09:51:45;;;;;;;9.07;7.57;;;16.90;99.90;;;;;;5054371;28;20467;-80
2022/05/05 09:59:49;;;;;;;9.97;7.30;;;16.90;99.90;;;;;;5053183;28;20466;-79
2022/05/05 10:05:17;;;;;;;7.93;7.13;;;16.80;99.90;;;;;;5051177;28;20478;-79
2022/05/05 10:07:46;;;;;;;8.10;6.67;;;16.80;99.90;;;;;;5054033;28;20538;-80
2022/05/05 10:10:17;;;;;;;7.10;6.40;;;16.80;99.90;;;;;;5051772;28;21031;-80
2022/05/05 10:12:47;;;;;;;8.77;7.43;;;16.90;99.90;;;;;;5056229;28;21096;-78
2022/05/05 10:15:15;;;;;;;10.17;8.17;;;16.90;99.90;;;;;;5051966;28;20446;-79
2022/05/05 10:17:45;;;;;;;9.53;8.60;;;16.90;99.90;;;;;;5051700;28;20945;-81
2022/05/05 10:20:15;;;;;;;9.10;7.40;;;16.90;99.90;;;;;;5054291;28;21166;-80
2022/05/05 10:22:52;;;;;;;7.70;6.87;;;16.90;99.90;;;;;;5056413;28;20484;-80
2022/05/05 10:25:25;;;;;;;9.50;7.50;;;16.90;99.90;;;;;;5058579;28;20475;-80
2022/05/05 10:27:54;;;;;;;12.10;8.67;;;17.00;99.90;;;;;;5063903;28;20462;-79
2022/05/05 10:30:34;;;;;;;12.20;9.20;;;16.90;99.90;;;;;;5057871;28;20475;-79
2022/05/05 10:33:05;;;;;;;9.13;8.07;;;16.90;99.90;;;;;;5057528;28;21100;-80
2022/05/05 10:35:47;;;;;;;10.20;8.20;;;16.90;99.90;;;;;;5074802;28;20864;-79
2022/05/05 10:38:39;;;;;;;9.07;8.00;;;16.90;99.90;;;;;;5067905;28;20982;-79
2022/05/05 10:41:39;;;;;;;10.17;8.17;;;16.90;99.90;;;;;;5059909;28;20470;-79
2022/05/05 10:44:24;;;;;;;9.90;7.70;;;17.00;99.90;;;;;;5057751;28;20470;-80
2022/05/05 10:46:56;;;;;;;10.37;8.77;;;17.00;99.90;;;;;;5053559;28;21046;-79
2022/05/05 10:49:51;;;;;;;10.50;8.97;;;17.00;99.90;;;;;;5066151;28;20534;-79
2022/05/05 10:52:30;;;;;;;8.90;7.97;;;17.00;99.90;;;;;;5066190;28;20568;-79
2022/05/05 10:55:23;;;;;;;9.13;8.13;;;16.90;99.90;;;;;;5066891;28;20455;-79
2022/05/05 10:58:11;;;;;;;9.30;8.50;;;16.90;99.90;;;;;;5062676;28;20450;-79
2022/05/05 11:00:41;;;;;;;11.60;8.37;;;16.90;99.90;;;;;;5065231;28;20460;-79
2022/05/05 11:03:19;;;;;;;11.40;10.20;;;16.90;99.90;;;;;;5056224;28;20487;-78
2022/05/05 11:05:47;;;;;;;10.20;9.10;;;16.90;99.90;;;;;;5062181;28;20507;-79
2022/05/05 11:08:35;;;;;;;9.90;8.90;;;16.90;99.90;;;;;;5053772;28;20881;-79
2022/05/05 11:21:31;;;;;;;8.00;7.30;;;16.90;99.90;;;;;;5053071;28;20484;-79
2022/05/05 11:22:31;;;;;;;9.57;8.23;;;16.80;99.90;;;;;;5049621;28;20496;-79
2022/05/05 11:25:03;;;;;;;11.73;7.90;;;16.80;99.90;;;;;;5056854;28;21031;-79
2022/05/05 11:27:31;;;;;;;9.80;7.73;;;16.80;99.90;;;;;;5058620;28;20469;-79
2022/05/05 11:29:59;;;;;;;11.23;9.20;;;16.80;1.00;;;;;;5059517;28;20464;-79
2022/05/05 11:32:30;;;;;;;9.17;7.83;;;16.70;1.00;;;;;;5069508;28;22132;-80
2022/05/05 11:34:59;;;;;;;8.97;8.03;;;16.80;1.00;;;;;;5055756;28;20567;-80
2022/05/05 11:37:28;;;;;;;12.50;8.60;;;16.80;1.00;;;;;;5056339;28;20464;-80
2022/05/05 11:39:57;;;;;;;10.47;8.83;;;16.80;1.00;;;;;;5052842;28;20449;-80
2022/05/05 11:42:28;;;;;;;11.57;9.40;;;16.80;1.00;;;;;;5050739;28;20838;-80
2022/05/05 11:44:56;;;;;;;10.43;8.37;;;16.80;1.00;;;;;;5055098;28;20483;-79
2022/05/05 11:47:25;;;;;;;9.10;8.30;;;16.90;1.00;;;;;;5058880;28;20460;-79
2022/05/05 11:49:56;;;;;;;12.03;10.30;;;16.90;1.00;;;;;;5053203;28;20447;-79
2022/05/05 11:52:26;;;;;;;10.60;8.60;;;16.90;1.00;;;;;;5054739;28;20504;-78
2022/05/05 11:54:57;;;;;;;10.50;8.90;;;16.80;1.00;;;;;;5052739;28;20480;-79
2022/05/05 11:57:35;;;;;;;10.03;9.00;;;16.80;15.00;;;;;;5059655;28;20554;-80
2022/05/05 12:02:51;;;;;;;11.57;8.93;;;16.90;1.00;;;;;;5058056;28;20469;-79
2022/05/05 12:05:21;;;;;;;14.17;12.87;;;16.80;99.90;;;;;;5058125;28;21020;-79
2022/05/05 12:07:50;;;;;;;10.57;9.10;;;16.80;99.90;;;;;;5058022;28;20472;-80
2022/05/05 12:10:21;;;;;;;12.30;10.30;;;16.80;99.90;;;;;;5056445;28;21006;-81
2022/05/05 12:13:01;;;;;;;10.30;9.30;;;16.90;99.90;;;;;;5070989;28;20488;-78
2022/05/05 12:15:30;;;;;;;14.57;11.40;;;16.90;99.90;;;;;;5054752;28;20464;-80
2022/05/05 12:18:01;;;;;;;12.93;10.17;;;17.00;99.90;;;;;;5053424;28;20460;-78
2022/05/05 12:20:31;;;;;;;14.70;10.60;;;17.10;99.90;;;;;;5056788;28;20476;-81
2022/05/05 12:23:00;;;;;;;12.63;10.80;;;17.10;99.90;;;;;;5055052;28;20481;-79
2022/05/05 12:25:29;;;;;;;14.70;12.07;;;17.10;25.30;;;;;;5062928;28;21103;-80
2022/05/05 12:28:08;;;;;;;13.33;11.93;;;17.10;99.90;;;;;;5064420;28;20481;-79
2022/05/05 12:30:37;;;;;;;14.93;11.43;;;17.10;99.90;;;;;;5063489;28;20551;-79
2022/05/05 12:33:08;;;;;;;17.03;10.93;;;17.10;1.00;;;;;;5061051;28;20478;-79
2022/05/05 12:35:38;;;;;;;20.60;12.27;;;17.20;99.90;;;;;;5066027;28;20466;-79
2022/05/05 12:38:07;;;;;;;14.13;10.90;;;17.30;99.90;;;;;;5057661;28;20457;-79
2022/05/05 12:40:37;;;;;;;12.30;10.17;;;17.30;1.00;;;;;;5061034;28;20466;-79
2022/05/05 12:43:10;;;;;;;12.20;10.70;;;17.30;1.00;;;;;;5060082;28;20484;-79
2022/05/05 12:45:39;;;;;;;11.73;10.53;;;17.40;1.00;;;;;;5054976;28;21075;-79
2022/05/05 12:48:09;;;;;;;12.20;11.10;;;17.40;1.00;;;;;;5061370;28;20548;-79
2022/05/05 12:50:43;;;;;;;12.10;9.80;;;17.50;1.00;;;;;;5062323;28;20507;-79
2022/05/05 13:01:40;;;;;;;13.67;11.67;;;17.70;1.00;;;;;;5058710;28;20474;-79
2022/05/05 13:04:12;;;;;;;11.50;10.10;;;17.70;1.00;;;;;;5060023;28;20466;-79
2022/05/05 13:06:42;;;;;;;12.60;11.00;;;17.70;1.00;;;;;;5059435;28;20482;-80
2022/05/05 13:09:11;;;;;;;13.30;11.73;;;17.70;1.00;;;;;;5062876;28;20458;-79
2022/05/05 13:11:41;;;;;;;11.53;10.00;;;17.70;1.00;;;;;;5057204;28;20482;-80
2022/05/05 13:14:12;;;;;;;12.87;10.43;;;17.70;1.00;;;;;;5059375;28;20439;-80
2022/05/05 13:16:40;;;;;;;12.00;10.53;;;17.70;1.00;;;;;;5052444;28;20434;-80
2022/05/05 13:19:10;;;;;;;11.43;10.23;;;17.80;99.90;;;;;;5060249;28;20458;-80
2022/05/05 13:21:39;;;;;;;13.87;11.50;;;17.80;99.90;;;;;;5062457;28;20473;-80
2022/05/05 13:24:08;;;;;;;13.90;11.07;;;17.80;99.90;;;;;;5059283;28;20453;-79
2022/05/05 13:26:38;;;;;;;11.50;9.77;;;17.90;99.90;;;;;;5053163;28;20521;-80
2022/05/05 13:29:07;;;;;;;10.33;9.23;;;17.90;99.90;;;;;;5053272;28;20458;-80
2022/05/05 13:31:37;;;;;;;14.37;10.10;;;17.90;99.90;;;;;;5050469;28;20476;-80
2022/05/05 13:34:05;;;;;;;11.50;10.30;;;18.00;99.90;;;;;;5052071;28;20467;-79
2022/05/05 13:36:35;;;;;;;8.87;8.07;;;18.10;99.90;;;;;;5055159;28;20492;-79
2022/05/05 13:39:10;;;;;;;10.60;8.97;;;18.10;99.90;;;;;;5056812;28;20990;-80
2022/05/05 13:41:38;;;;;;;11.43;9.17;;;18.00;99.90;;;;;;5054926;28;21331;-80
2022/05/05 13:44:07;;;;;;;10.90;9.67;;;18.10;99.90;;;;;;5052994;28;20466;-80
2022/05/05 13:46:38;;;;;;;10.00;9.00;;;18.10;99.90;;;;;;5058378;28;20486;-79
2022/05/05 13:49:06;;;;;;;12.87;10.03;;;18.10;99.90;;;;;;5056381;28;20470;-79
2022/05/05 13:51:34;;;;;;;14.43;10.60;;;18.20;99.90;;;;;;5054045;28;20485;-81
2022/05/05 13:54:23;;;;;;;11.70;10.30;;;18.30;99.90;;;;;;5058460;28;20466;-79
2022/05/05 13:56:52;;;;;;;11.00;9.77;;;18.40;99.90;;;;;;5057724;28;20463;-79
2022/05/05 13:59:21;;;;;;;11.70;9.70;;;18.40;99.90;;;;;;5056824;28;20462;-79